Time;durP1;ratioP1;P1;durP2;ratioP2;P2;SDS_P1;SDS_P2;PMS_P1;PMS_P2;Temp;Humidity;BMP_temperature;BMP_pressure;BME280_temperature;BME280_humidity;BME280_pressure;Samples;Min_cycle;Max_cycle;Signal;HPM_P1;HPM_P2
2022/02/24 00:00:25;;;;;;;7.47;4.72;;;;;;;7.51;97.20;100946.13;4973447;28;20026;-80
2022/02/24 00:02:50;;;;;;;8.27;4.07;;;;;;;7.35;97.57;100917.00;4974196;28;20383;-87
2022/02/24 00:05:16;;;;;;;9.60;5.20;;;;;;;7.67;97.82;100971.88;4974556;28;20089;-84
2022/02/24 00:07:42;;;;;;;7.88;4.03;;;;;;;7.56;95.94;100955.88;4973163;28;20027;-85
2022/02/24 00:10:10;;;;;;;7.35;3.90;;;;;;;7.47;95.80;100965.63;4973245;28;20473;-82
2022/02/24 00:12:37;;;;;;;7.85;4.25;;;;;;;7.16;96.44;100925.31;4973065;28;20030;-81
2022/02/24 00:15:05;;;;;;;7.47;4.32;;;;;;;7.33;98.70;100951.06;4974238;28;20512;-87
2022/02/24 00:17:31;;;;;;;8.23;4.13;;;;;;;7.33;99.17;100963.91;4972955;28;20027;-89
2022/02/24 00:19:57;;;;;;;6.10;3.40;;;;;;;6.80;97.72;100963.41;4973042;28;20508;-86
2022/02/24 00:22:22;;;;;;;6.78;3.60;;;;;;;6.62;99.49;100958.06;4974051;28;20058;-79
2022/02/24 00:24:49;;;;;;;5.97;3.40;;;;;;;6.48;99.55;100970.06;4973338;28;20026;-80
2022/02/24 00:27:14;;;;;;;7.57;3.25;;;;;;;6.32;100.00;100961.41;4972694;28;20105;-83
2022/02/24 00:29:40;;;;;;;7.03;3.70;;;;;;;6.26;100.00;100953.34;4987007;28;20137;-83
2022/02/24 00:32:06;;;;;;;6.20;3.42;;;;;;;6.22;100.00;100951.38;4993470;28;20034;-86
2022/02/24 00:34:31;;;;;;;8.13;4.30;;;;;;;6.24;100.00;100947.25;4975994;28;20117;-80
2022/02/24 00:36:56;;;;;;;6.47;3.50;;;;;;;6.27;100.00;100942.28;4993481;28;20038;-77
2022/02/24 00:39:23;;;;;;;6.95;3.60;;;;;;;6.48;100.00;100962.38;4993065;28;20033;-83
2022/02/24 00:41:49;;;;;;;6.45;3.28;;;;;;;6.56;100.00;100960.25;4975539;28;20484;-80
2022/02/24 00:44:15;;;;;;;6.43;3.30;;;;;;;6.44;100.00;100929.59;4992951;28;20037;-84
2022/02/24 00:46:41;;;;;;;6.10;3.20;;;;;;;6.59;100.00;100942.47;4951947;29;20078;-82
2022/02/24 00:49:08;;;;;;;6.20;3.70;;;;;;;6.52;100.00;100936.09;4932484;29;20051;-85
2022/02/24 00:51:34;;;;;;;8.20;3.85;;;;;;;6.52;100.00;100946.38;4916774;29;20051;-80
2022/02/24 00:54:00;;;;;;;6.68;3.53;;;;;;;6.41;100.00;100932.88;4932784;29;20066;-80
2022/02/24 00:56:26;;;;;;;6.65;4.05;;;;;;;6.20;100.00;100896.53;4916468;29;20043;-79
2022/02/24 00:58:52;;;;;;;6.82;3.90;;;;;;;6.46;100.00;100949.44;4932595;29;20566;-77
2022/02/24 01:01:17;;;;;;;7.15;4.07;;;;;;;6.32;100.00;100947.72;4932739;29;20051;-81
2022/02/24 01:03:44;;;;;;;7.55;4.38;;;;;;;6.20;100.00;100944.38;4916574;29;20043;-77
2022/02/24 01:06:10;;;;;;;7.45;4.30;;;;;;;5.92;100.00;100940.03;4916404;29;20043;-85
2022/02/24 01:08:36;;;;;;;8.23;4.10;;;;;;;6.04;100.00;100929.72;4916568;29;20047;-81
2022/02/24 01:11:01;;;;;;;6.15;3.83;;;;;;;5.95;100.00;100930.88;4916208;29;20027;-78
2022/02/24 01:13:28;;;;;;;6.78;4.30;;;;;;;5.81;100.00;100930.00;4932697;29;20054;-81
2022/02/24 01:15:54;;;;;;;8.63;4.72;;;;;;;5.81;100.00;100894.13;4916408;29;20039;-81
2022/02/24 01:18:19;;;;;;;8.07;4.40;;;;;;;6.05;100.00;100895.63;4946966;28;20676;-83
2022/02/24 01:20:45;;;;;;;7.57;4.57;;;;;;;6.25;100.00;100912.22;4965614;28;20519;-80
2022/02/24 01:23:11;;;;;;;6.68;4.03;;;;;;;6.04;100.00;100870.78;4975240;28;20620;-86
2022/02/24 01:25:36;;;;;;;9.27;4.70;;;;;;;6.28;100.00;100910.72;4974577;28;20489;-82
2022/02/24 01:28:02;;;;;;;7.82;4.55;;;;;;;6.30;100.00;100916.81;4975024;28;20046;-84
2022/02/24 01:30:27;;;;;;;7.03;4.75;;;;;;;6.40;100.00;100920.84;4991117;28;20018;-82
2022/02/24 01:32:53;;;;;;;8.88;4.30;;;;;;;6.38;100.00;100919.88;4989696;28;20405;-83
2022/02/24 01:35:18;;;;;;;9.07;4.25;;;;;;;6.40;100.00;100925.09;4992122;28;20061;-86
2022/02/24 01:37:47;;;;;;;8.45;4.57;;;;;;;6.39;100.00;100913.97;4974808;28;20026;-83
2022/02/24 01:40:13;;;;;;;7.22;4.68;;;;;;;6.36;100.00;100918.88;4991798;28;20053;-82
2022/02/24 01:42:39;;;;;;;13.50;6.28;;;;;;;6.04;100.00;100901.53;4974030;28;20573;-85
2022/02/24 01:45:05;;;;;;;7.75;4.88;;;;;;;6.17;100.00;100914.31;4974584;28;20022;-81
2022/02/24 01:47:31;;;;;;;8.48;5.07;;;;;;;5.98;100.00;100884.97;4974561;28;20028;-82
2022/02/24 01:49:56;;;;;;;10.75;5.75;;;;;;;5.99;100.00;100908.91;4992088;28;20105;-81
2022/02/24 01:52:22;;;;;;;13.13;6.88;;;;;;;6.03;100.00;100922.81;4991801;28;20030;-76
2022/02/24 01:54:49;;;;;;;9.25;5.75;;;;;;;6.12;100.00;100924.28;4969482;28;20573;-80
2022/02/24 01:57:15;;;;;;;9.55;5.32;;;;;;;6.19;100.00;100932.34;4953516;28;20561;-80
2022/02/24 01:59:41;;;;;;;10.38;5.05;;;;;;;6.19;100.00;100925.53;4969850;28;20034;-82
2022/02/24 02:02:06;;;;;;;6.38;4.15;;;;;;;6.27;100.00;100911.53;4953761;28;20042;-86
2022/02/24 02:04:32;;;;;;;8.00;4.35;;;;;;;6.35;100.00;100926.50;4969916;28;20465;-80
2022/02/24 02:06:58;;;;;;;7.38;4.35;;;;;;;6.20;100.00;100887.97;4969989;28;20034;-80
2022/02/24 02:09:24;;;;;;;7.32;3.90;;;;;;;6.48;100.00;100926.47;4969688;28;20481;-79
2022/02/24 02:11:50;;;;;;;6.35;4.57;;;;;;;6.38;100.00;100912.19;4953719;28;20066;-79
2022/02/24 02:14:15;;;;;;;12.50;4.60;;;;;;;6.44;100.00;100904.88;4969833;28;20055;-79
2022/02/24 02:16:49;;;;;;;16.08;8.20;;;;;;;6.66;100.00;100930.94;4969853;28;20030;-81
2022/02/24 02:19:15;;;;;;;55.08;23.50;;;;;;;6.70;100.00;100935.44;4969710;28;20138;-79
2022/02/24 02:21:42;;;;;;;26.63;12.38;;;;;;;6.60;100.00;100923.72;4969685;28;20034;-81
2022/02/24 02:24:08;;;;;;;12.57;6.22;;;;;;;6.51;100.00;100928.31;4969655;28;20038;-86
2022/02/24 02:26:34;;;;;;;10.15;5.30;;;;;;;6.24;100.00;100931.84;4970280;28;20523;-87
2022/02/24 02:29:01;;;;;;;9.05;4.88;;;;;;;5.90;100.00;100916.88;4973878;28;20454;-84
2022/02/24 02:31:27;;;;;;;8.02;4.68;;;;;;;5.91;100.00;100940.84;4991424;28;20026;-84
2022/02/24 02:34:07;;;;;;;11.77;6.72;;;;;;;5.99;100.00;100937.13;4991632;28;20404;-83
2022/02/24 02:36:34;;;;;;;12.75;8.85;;;;;;;5.57;100.00;100919.09;4991474;28;20542;-83
2022/02/24 02:39:00;;;;;;;15.15;13.45;;;;;;;5.32;100.00;100898.66;4991229;28;20026;-86
2022/02/24 02:41:33;;;;;;;10.90;6.65;;;;;;;5.39;100.00;100923.91;4973754;28;20031;-80
2022/02/24 02:44:00;;;;;;;9.50;5.93;;;;;;;5.35;100.00;100934.72;4991508;28;20404;-81
2022/02/24 02:46:26;;;;;;;11.90;7.22;;;;;;;4.92;100.00;100902.09;4973738;28;20034;-84
2022/02/24 02:48:52;;;;;;;8.27;5.80;;;;;;;4.97;100.00;100935.63;4977739;28;20531;-89
2022/02/24 02:51:17;;;;;;;9.18;6.05;;;;;;;5.06;100.00;100931.16;4978043;28;20068;-80
2022/02/24 02:53:43;;;;;;;8.23;5.75;;;;;;;5.11;100.00;100919.53;4995127;28;20037;-85
2022/02/24 02:56:08;;;;;;;10.05;6.07;;;;;;;5.01;100.00;100874.53;4994141;28;20112;-81
2022/02/24 02:58:34;;;;;;;10.40;6.07;;;;;;;5.47;100.00;100937.19;4995228;28;20109;-84
2022/02/24 03:01:00;;;;;;;14.88;9.07;;;;;;;5.54;100.00;100915.44;4994904;28;20485;-79
2022/02/24 03:03:25;;;;;;;16.98;9.57;;;;;;;5.49;100.00;100887.84;4994824;28;20030;-86
2022/02/24 03:05:51;;;;;;;11.73;7.80;;;;;;;5.80;100.00;100929.91;4994880;28;20045;-78
2022/02/24 03:08:17;;;;;;;11.48;7.35;;;;;;;5.79;100.00;100910.19;4977613;28;20038;-79
2022/02/24 03:10:43;;;;;;;14.75;8.98;;;;;;;5.59;100.00;100878.19;4993419;28;20030;-83
2022/02/24 03:13:08;;;;;;;22.88;11.35;;;;;;;5.88;100.00;100935.53;4977931;28;20028;-88
2022/02/24 03:15:34;;;;;;;23.17;10.68;;;;;;;5.92;100.00;100912.75;4993752;28;20034;-84
2022/02/24 03:18:00;;;;;;;11.15;7.63;;;;;;;5.94;100.00;100906.06;4977268;28;20034;-85
2022/02/24 03:20:30;;;;;;;11.50;7.18;;;;;;;5.49;100.00;100805.91;4994720;28;20130;-84
2022/02/24 03:22:56;;;;;;;11.40;6.68;;;;;;;6.22;100.00;100928.31;4977598;28;20042;-89
2022/02/24 03:25:22;;;;;;;12.88;7.30;;;;;;;5.98;100.00;100895.22;4994870;28;20038;-81
2022/02/24 03:27:47;;;;;;;13.35;7.38;;;;;;;5.66;100.00;100876.13;4995187;28;20041;-84
2022/02/24 03:30:13;;;;;;;11.38;7.90;;;;;;;5.85;100.00;100932.78;4994954;28;20034;-81
2022/02/24 03:32:39;;;;;;;13.05;7.47;;;;;;;5.71;100.00;100924.19;4994272;28;20035;-80
2022/02/24 03:35:05;;;;;;;11.85;7.72;;;;;;;5.47;100.00;100932.06;4994526;28;20033;-82
2022/02/24 03:37:31;;;;;;;10.52;7.43;;;;;;;5.45;100.00;100918.31;4993139;28;20414;-80
2022/02/24 03:39:56;;;;;;;11.40;7.65;;;;;;;5.51;100.00;100931.50;4993243;28;20041;-84
2022/02/24 03:42:24;;;;;;;11.80;7.95;;;;;;;5.43;100.00;100910.53;4994211;28;20058;-83
2022/02/24 03:44:49;;;;;;;13.18;8.43;;;;;;;5.62;100.00;100927.94;4993092;28;20133;-82
2022/02/24 03:47:15;;;;;;;12.60;7.28;;;;;;;5.72;100.00;100933.66;4976376;28;20195;-80
2022/02/24 03:49:40;;;;;;;10.20;6.75;;;;;;;5.70;100.00;100927.56;4993110;28;20046;-79
2022/02/24 03:52:06;;;;;;;12.27;8.38;;;;;;;5.58;100.00;100902.03;4976685;28;20046;-79
2022/02/24 03:54:32;;;;;;;13.38;8.70;;;;;;;5.82;100.00;100941.16;4994535;28;20096;-81
2022/02/24 03:56:57;;;;;;;13.07;9.82;;;;;;;5.90;100.00;100936.50;4978605;28;20509;-82
2022/02/24 03:59:23;;;;;;;13.07;8.52;;;;;;;5.88;100.00;100941.56;4954817;28;20026;-79
2022/02/24 04:01:49;;;;;;;9.35;6.05;;;;;;;5.70;100.00;100927.56;4973482;28;20031;-78
2022/02/24 04:04:15;;;;;;;8.40;5.40;;;;;;;5.55;100.00;100928.34;4974680;28;20115;-77
2022/02/24 04:06:40;;;;;;;7.10;5.28;;;;;;;5.63;100.00;100944.19;4974494;28;20034;-77
2022/02/24 04:09:06;;;;;;;8.00;5.38;;;;;;;5.57;100.00;100952.38;4974288;28;20023;-77
2022/02/24 04:11:31;;;;;;;6.90;5.20;;;;;;;5.51;100.00;100952.00;4957178;28;20026;-81
2022/02/24 04:13:57;;;;;;;7.70;5.15;;;;;;;5.34;100.00;100962.00;4982627;28;20107;-82
2022/02/24 04:16:23;;;;;;;29.63;26.63;;;;;;;5.21;100.00;100941.50;4986385;28;20030;-78
2022/02/24 04:18:48;;;;;;;9.48;6.60;;;;;;;5.37;100.00;100969.00;4974203;28;20400;-81
2022/02/24 04:21:13;;;;;;;5.82;3.90;;;;;;;5.15;100.00;100959.91;4974412;28;20041;-80
2022/02/24 04:23:39;;;;;;;5.55;3.70;;;;;;;5.03;100.00;100933.47;4973243;28;20035;-83
2022/02/24 04:26:04;;;;;;;4.93;3.17;;;;;;;5.18;100.00;100962.69;4974653;28;20034;-80
2022/02/24 04:28:30;;;;;;;4.18;2.70;;;;;;;5.12;100.00;100938.31;4952232;29;20047;-80
2022/02/24 04:30:55;;;;;;;3.25;2.20;;;;;;;5.21;100.00;100956.88;4952064;29;20050;-81
2022/02/24 04:33:21;;;;;;;2.03;1.48;;;;;;;4.91;100.00;100910.53;4952282;29;20082;-82
2022/02/24 04:35:46;;;;;;;0.88;0.85;;;;;;;5.24;100.00;100962.19;4951882;28;20071;-77
2022/02/24 04:38:12;;;;;;;1.00;0.88;;;;;;;5.23;100.00;100962.97;4951805;28;20051;-80
2022/02/24 04:40:38;;;;;;;1.70;1.00;;;;;;;5.28;100.00;100970.94;4952160;29;20098;-80
2022/02/24 04:43:03;;;;;;;2.85;1.10;;;;;;;5.30;100.00;100970.25;4951611;28;20043;-78
2022/02/24 04:45:28;;;;;;;0.80;0.80;;;;;;;5.27;100.00;100977.75;4952110;29;20039;-79
2022/02/24 04:47:54;;;;;;;1.42;0.80;;;;;;;5.25;100.00;100976.75;4952145;29;20047;-79
2022/02/24 04:50:19;;;;;;;0.90;0.90;;;;;;;5.22;100.00;100981.69;4951895;29;20114;-84
2022/02/24 04:52:46;;;;;;;1.08;0.98;;;;;;;4.91;100.00;100935.22;4913608;29;20068;-82
2022/02/24 04:55:11;;;;;;;0.90;0.90;;;;;;;4.98;100.00;100958.75;4913889;29;20099;-84
2022/02/24 04:57:37;;;;;;;1.77;0.88;;;;;;;5.16;100.00;101004.31;4913427;29;20043;-83
2022/02/24 05:00:05;;;;;;;5.78;1.52;;;;;;;5.18;100.00;101005.28;4916810;29;20243;-83
2022/02/24 05:02:30;;;;;;;2.97;2.05;;;;;;;5.12;100.00;100986.94;4932296;28;20118;-83
2022/02/24 05:04:56;;;;;;;5.13;2.95;;;;;;;4.95;100.00;100979.03;4916593;29;20047;-82
2022/02/24 05:07:21;;;;;;;3.47;2.47;;;;;;;5.02;100.00;100990.56;4932311;29;20038;-83
2022/02/24 05:09:47;;;;;;;3.33;2.13;;;;;;;5.07;100.00;101013.91;4932298;29;20558;-82
2022/02/24 05:12:12;;;;;;;4.38;2.88;;;;;;;5.05;100.00;101007.78;4916311;29;20036;-80
2022/02/24 05:14:38;;;;;;;2.05;1.25;;;;;;;4.97;100.00;101005.63;4932403;29;20044;-80
2022/02/24 05:17:04;;;;;;;1.27;1.10;;;;;;;5.10;100.00;101032.94;4915850;29;20453;-83
2022/02/24 05:19:29;;;;;;;3.33;2.33;;;;;;;5.07;100.00;101014.81;4916254;29;20483;-82
2022/02/24 05:21:55;;;;;;;1.60;1.50;;;;;;;4.88;100.00;100981.94;4931439;28;20122;-80
2022/02/24 05:24:20;;;;;;;2.15;1.75;;;;;;;5.07;100.00;101037.84;4931998;29;20044;-78
2022/02/24 05:26:46;;;;;;;0.93;0.90;;;;;;;4.98;100.00;101020.16;4930917;28;20028;-87
2022/02/24 05:29:11;;;;;;;1.27;1.17;;;;;;;4.98;100.00;101045.75;4918741;28;20051;-82
2022/02/24 05:31:36;;;;;;;1.35;1.08;;;;;;;4.93;100.00;101047.13;4969648;28;20042;-84
2022/02/24 05:34:03;;;;;;;2.85;1.73;;;;;;;4.91;100.00;101042.69;4972889;28;20395;-81
2022/02/24 05:36:28;;;;;;;3.47;1.65;;;;;;;4.91;100.00;101045.22;4975721;28;20421;-82
2022/02/24 05:38:54;;;;;;;1.98;1.30;;;;;;;4.91;100.00;101047.78;4979632;28;20033;-82
2022/02/24 05:41:21;;;;;;;1.33;1.02;;;;;;;4.90;100.00;101072.50;4973695;28;20026;-81
2022/02/24 05:43:49;;;;;;;2.65;2.00;;;;;;;4.93;100.00;101070.13;4973655;28;20046;-77
2022/02/24 05:46:15;;;;;;;3.00;2.22;;;;;;;4.77;100.00;101044.28;4991203;28;20022;-84
2022/02/24 05:48:41;;;;;;;1.17;1.05;;;;;;;4.84;100.00;101066.97;4961507;28;20108;-77
2022/02/24 05:51:07;;;;;;;1.48;1.10;;;;;;;4.91;100.00;101079.41;4970499;28;20035;-77
2022/02/24 05:53:32;;;;;;;1.63;1.30;;;;;;;4.94;100.00;101077.03;4970475;28;20039;-77
2022/02/24 05:55:58;;;;;;;4.25;2.17;;;;;;;4.91;100.00;101081.97;4970500;28;20496;-78
2022/02/24 05:58:23;;;;;;;6.97;3.45;;;;;;;4.84;100.00;101055.03;4970343;28;20473;-76
2022/02/24 06:00:49;;;;;;;7.10;4.30;;;;;;;4.98;100.00;101084.13;4970185;28;20489;-81
2022/02/24 06:03:14;;;;;;;2.55;1.70;;;;;;;4.84;100.00;101072.94;4970526;28;20030;-80
2022/02/24 06:05:40;;;;;;;2.80;1.60;;;;;;;5.00;100.00;101091.94;4980922;28;20501;-83
2022/02/24 06:08:05;;;;;;;7.80;3.92;;;;;;;5.02;100.00;101098.03;4972099;28;20045;-81
2022/02/24 06:10:31;;;;;;;3.22;2.08;;;;;;;5.01;100.00;101101.41;4969710;28;20046;-81
2022/02/24 06:12:58;;;;;;;3.28;1.65;;;;;;;5.18;100.00;101111.13;4959210;28;20545;-83
2022/02/24 06:15:24;;;;;;;7.35;4.80;;;;;;;5.17;100.00;101113.56;4950410;29;20142;-84
2022/02/24 06:17:50;;;;;;;15.88;9.93;;;;;;;5.11;100.00;101102.91;4934546;29;20107;-85
2022/02/24 06:20:15;;;;;;;9.00;5.68;;;;;;;5.12;100.00;101109.81;4950696;29;20129;-87
2022/02/24 06:22:41;;;;;;;4.55;2.70;;;;;;;5.13;100.00;101114.16;4950081;28;20141;-84
2022/02/24 06:25:07;;;;;;;8.43;6.50;;;;;;;5.08;100.00;101102.72;4934431;29;20039;-83
2022/02/24 06:27:32;;;;;;;2.88;1.83;;;;;;;5.17;100.00;101127.28;4950577;29;20441;-83
2022/02/24 06:29:58;;;;;;;4.80;2.40;;;;;;;5.08;100.00;101118.06;4934515;29;20138;-86
2022/02/24 06:32:24;;;;;;;5.88;2.92;;;;;;;5.15;100.00;101136.50;4934758;29;20113;-90
2022/02/24 06:34:50;;;;;;;4.00;2.13;;;;;;;5.06;100.00;101110.28;4934674;29;20553;-87
2022/02/24 06:37:16;;;;;;;1.35;1.08;;;;;;;5.23;100.00;101137.03;4934418;29;20075;-89
2022/02/24 06:39:42;;;;;;;1.55;1.10;;;;;;;5.17;100.00;101121.25;4934190;29;20138;-84
2022/02/24 06:42:08;;;;;;;2.10;1.27;;;;;;;5.26;100.00;101138.91;4981507;28;20413;-84
2022/02/24 06:44:33;;;;;;;1.35;1.10;;;;;;;5.21;100.00;101112.09;4991247;28;20034;-91
2022/02/24 06:46:59;;;;;;;3.90;1.38;;;;;;;5.33;100.00;101142.03;4974125;28;20043;-84
2022/02/24 06:49:24;;;;;;;1.33;1.02;;;;;;;5.31;100.00;101128.22;4974060;28;20038;-84
2022/02/24 06:51:52;;;;;;;1.58;1.35;;;;;;;5.41;100.00;101147.66;4991354;28;20418;-87
2022/02/24 06:54:17;;;;;;;1.50;1.00;;;;;;;5.32;100.00;101126.53;4991580;28;20030;-86
2022/02/24 06:56:42;;;;;;;2.40;1.40;;;;;;;5.07;100.00;101096.72;4973626;28;20034;-85
2022/02/24 06:59:08;;;;;;;2.53;1.80;;;;;;;5.33;100.00;101147.16;4988759;28;20042;-81
2022/02/24 07:01:34;;;;;;;1.50;1.23;;;;;;;5.38;100.00;101150.00;4972714;28;20046;-86
2022/02/24 07:03:59;;;;;;;2.53;1.70;;;;;;;5.37;100.00;101137.09;4988912;28;20124;-85
2022/02/24 07:06:25;;;;;;;3.25;1.92;;;;;;;5.50;100.00;101168.78;4972736;28;20117;-83
2022/02/24 07:08:50;;;;;;;1.98;1.50;;;;;;;5.30;100.00;101123.88;4989343;28;20046;-84
2022/02/24 07:11:15;;;;;;;3.60;2.17;;;;;;;5.30;100.00;101115.31;4972582;28;20058;-88
2022/02/24 07:13:41;;;;;;;4.72;2.88;;;;;;;5.41;100.00;101147.66;4972613;28;20457;-83
2022/02/24 07:16:07;;;;;;;4.55;2.88;;;;;;;5.63;100.00;101167.97;4972722;28;20034;-84
2022/02/24 07:18:32;;;;;;;4.80;3.13;;;;;;;5.55;100.00;101157.97;4972254;28;20043;-80
2022/02/24 07:20:58;;;;;;;5.07;2.63;;;;;;;5.61;100.00;101168.63;4969007;28;20042;-81
2022/02/24 07:23:24;;;;;;;7.07;3.67;;;;;;;5.61;100.00;101158.38;4969341;28;20050;-80
2022/02/24 07:25:53;;;;;;;6.93;3.35;;;;;;;5.50;100.00;101132.91;4969272;28;20039;-83
2022/02/24 07:28:20;;;;;;;5.45;3.50;;;;;;;5.59;100.00;101137.78;4969218;28;20038;-85
2022/02/24 07:30:45;;;;;;;6.07;4.25;;;;;;;5.72;100.00;101166.78;4956273;28;20047;-80
2022/02/24 07:33:11;;;;;;;10.23;7.50;;;;;;;5.45;100.00;101115.47;4969996;28;20182;-82
2022/02/24 07:35:36;;;;;;;6.15;4.00;;;;;;;5.78;100.00;101136.44;4956468;28;20039;-81
2022/02/24 07:38:02;;;;;;;7.68;4.13;;;;;;;6.02;100.00;101168.00;4938511;29;20039;-85
2022/02/24 07:40:27;;;;;;;5.47;4.20;;;;;;;5.91;100.00;101168.94;4934331;29;20047;-81
2022/02/24 07:42:53;;;;;;;4.65;3.30;;;;;;;5.81;100.00;101144.38;4933869;29;20123;-87
2022/02/24 07:45:18;;;;;;;9.02;4.65;;;;;;;5.90;100.00;101162.03;4934268;29;20066;-85
2022/02/24 07:47:43;;;;;;;7.63;4.82;;;;;;;5.98;100.00;101174.59;4933975;29;20051;-82
2022/02/24 07:50:13;;;;;;;6.32;4.53;;;;;;;6.04;100.00;101179.22;4934226;29;20071;-80
2022/02/24 07:52:39;;;;;;;;;;;;;;;6.13;100.00;101179.84;4966404;28;20042;-84
2022/02/24 07:55:07;;;;;;;6.53;4.47;;;;;;;6.03;100.00;101176.56;4993762;28;19921;-81
2022/02/24 07:57:32;;;;;;;6.13;4.32;;;;;;;6.01;100.00;101183.25;4994109;28;20027;-81
2022/02/24 07:59:58;;;;;;;7.55;4.88;;;;;;;5.84;100.00;101188.13;4994633;28;20041;-82
2022/02/24 08:02:23;;;;;;;7.93;5.72;;;;;;;5.88;100.00;101197.81;4976494;28;20112;-81
2022/02/24 08:04:48;;;;;;;10.63;6.72;;;;;;;5.87;100.00;101190.00;4976252;28;20046;-85
2022/02/24 08:07:15;;;;;;;8.23;6.47;;;;;;;5.85;100.00;101187.34;4994108;28;20041;-80
2022/02/24 08:09:40;;;;;;;9.10;6.28;;;;;;;5.93;100.00;101205.78;4933437;29;20103;-81
2022/02/24 08:14:49;;;;;;;8.55;6.13;;;;;;;5.96;100.00;101219.69;4933650;29;20144;-85
2022/02/24 08:17:15;;;;;;;9.23;6.45;;;;;;;5.83;100.00;101202.63;4933380;29;20051;-83
2022/02/24 08:19:42;;;;;;;9.25;6.28;;;;;;;5.78;100.00;101206.53;4933434;29;20039;-80
2022/02/24 08:22:07;;;;;;;10.18;6.43;;;;;;;5.79;100.00;101207.41;4933541;29;20494;-82
2022/02/24 08:24:35;;;;;;;8.25;5.68;;;;;;;5.64;100.00;101195.31;4933282;29;20049;-82
2022/02/24 08:27:00;;;;;;;11.48;7.03;;;;;;;5.65;100.00;101199.66;4917557;29;20082;-81
2022/02/24 08:29:26;;;;;;;14.10;7.88;;;;;;;5.53;100.00;101180.91;4917383;29;20071;-83
2022/02/24 08:31:51;;;;;;;22.20;9.35;;;;;;;5.61;100.00;101195.13;4917019;29;20036;-84
2022/02/24 08:34:17;;;;;;;28.92;9.07;;;;;;;5.73;100.00;101189.97;4917365;29;20495;-85
2022/02/24 08:36:43;;;;;;;27.88;8.82;;;;;;;5.83;100.00;101199.13;4933127;29;20049;-82
2022/02/24 08:39:09;;;;;;;15.75;8.38;;;;;;;5.75;100.00;101197.75;4933209;29;20031;-84
2022/02/24 08:41:35;;;;;;;13.77;7.00;;;;;;;5.69;100.00;101192.22;4966265;28;20051;-82
2022/02/24 08:44:01;;;;;;;12.82;6.90;;;;;;;5.72;100.00;101203.56;4971604;28;20050;-83
2022/02/24 08:46:27;;;;;;;11.70;7.30;;;;;;;5.69;100.00;101184.53;4954585;28;20082;-85
2022/02/24 08:48:52;;;;;;;12.05;7.60;;;;;;;5.70;100.00;101194.88;4986266;28;20038;-84
2022/02/24 08:51:17;;;;;;;10.13;6.97;;;;;;;5.79;100.00;101190.34;4990819;28;20109;-83
2022/02/24 08:53:43;;;;;;;9.95;7.22;;;;;;;5.80;100.00;101212.63;4974452;28;20073;-82
2022/02/24 08:56:08;;;;;;;9.88;6.85;;;;;;;5.82;100.00;101199.94;4990815;28;20056;-81
2022/02/24 08:58:34;;;;;;;9.48;6.78;;;;;;;5.81;100.00;101206.72;4990660;28;20125;-81
2022/02/24 09:00:59;;;;;;;30.70;9.73;;;;;;;5.55;100.00;101151.16;4974465;28;20123;-84
2022/02/24 09:03:25;;;;;;;17.15;7.47;;;;;;;5.94;100.00;101205.91;4990607;28;20038;-81
2022/02/24 09:05:50;;;;;;;19.27;9.07;;;;;;;5.79;100.00;101166.41;4990724;28;20042;-80
2022/02/24 09:08:16;;;;;;;16.52;7.60;;;;;;;5.96;100.00;101209.44;4990194;28;20101;-81
2022/02/24 09:10:42;;;;;;;14.60;8.05;;;;;;;5.95;100.00;101207.66;4990748;28;20038;-81
2022/02/24 09:13:08;;;;;;;17.92;8.63;;;;;;;6.09;100.00;101212.88;4974176;28;20042;-81
2022/02/24 09:15:35;;;;;;;11.55;7.38;;;;;;;6.17;100.00;101208.25;4990152;28;20038;-87
2022/02/24 09:18:01;;;;;;;9.48;5.75;;;;;;;5.95;100.00;101160.66;4988656;28;20556;-79
2022/02/24 09:20:27;;;;;;;9.07;6.28;;;;;;;6.21;99.40;101213.69;4973512;28;20041;-80
2022/02/24 09:22:52;;;;;;;11.48;6.80;;;;;;;6.27;100.00;101190.13;4971983;28;20145;-85
2022/02/24 09:25:18;;;;;;;10.60;5.95;;;;;;;6.40;99.23;101199.53;4988215;28;20209;-80
2022/02/24 09:27:43;;;;;;;10.82;6.35;;;;;;;6.46;98.22;101210.19;4973176;28;20038;-80
2022/02/24 09:30:09;;;;;;;13.32;6.03;;;;;;;6.47;97.37;101192.31;4972986;28;20031;-86
2022/02/24 09:32:37;;;;;;;17.27;6.22;;;;;;;6.65;98.42;101209.69;5009059;28;20033;-83
2022/02/24 09:35:05;;;;;;;12.57;5.60;;;;;;;6.73;95.36;101205.03;4994237;28;20029;-81
2022/02/24 09:37:34;;;;;;;7.43;4.82;;;;;;;6.67;95.08;101205.56;5011830;28;20189;-81
2022/02/24 09:40:01;;;;;;;6.80;4.28;;;;;;;6.77;94.06;101210.47;4994164;28;20116;-82
2022/02/24 09:42:27;;;;;;;7.82;4.72;;;;;;;6.70;94.07;101189.47;5011614;28;20500;-80
2022/02/24 09:44:53;;;;;;;7.32;4.40;;;;;;;6.48;95.31;101171.00;5011768;28;20030;-82
2022/02/24 09:47:20;;;;;;;6.85;4.50;;;;;;;6.73;94.06;101207.59;4993886;28;20041;-80
2022/02/24 09:49:47;;;;;;;9.00;5.13;;;;;;;6.64;94.97;101195.97;5008669;28;20045;-79
2022/02/24 09:52:13;;;;;;;8.00;4.90;;;;;;;6.71;95.54;101204.09;4994230;28;20096;-80
2022/02/24 09:54:39;;;;;;;8.13;4.40;;;;;;;6.41;93.96;101168.84;5002967;28;20034;-81
2022/02/24 09:57:04;;;;;;;8.57;4.47;;;;;;;6.71;93.95;101210.09;4984656;28;20045;-81
2022/02/24 09:59:30;;;;;;;6.07;4.20;;;;;;;6.78;92.66;101203.69;4960886;28;20053;-80
2022/02/24 10:01:58;;;;;;;7.93;4.45;;;;;;;6.73;91.79;101187.09;4977702;28;20545;-82
2022/02/24 10:04:25;;;;;;;8.50;4.72;;;;;;;6.75;92.79;101186.41;5001423;28;20025;-81
2022/02/24 10:06:52;;;;;;;6.32;4.32;;;;;;;6.90;93.16;101191.63;4984718;28;20069;-82
2022/02/24 10:09:33;;;;;;;6.82;4.75;;;;;;;6.98;94.06;101192.13;5000599;28;20101;-81
2022/02/24 10:12:06;;;;;;;6.43;3.47;;;;;;;6.84;92.72;101195.47;4947894;29;20039;-82
2022/02/24 10:14:34;;;;;;;7.22;3.97;;;;;;;6.83;93.11;101186.91;4950070;29;20494;-81
2022/02/24 10:17:04;;;;;;;10.63;3.95;;;;;;;6.71;91.28;101187.00;4932417;29;20046;-80
2022/02/24 10:19:36;;;;;;;7.15;3.97;;;;;;;6.64;89.78;101183.16;4950055;29;20039;-76
2022/02/24 10:22:18;;;;;;;5.65;3.17;;;;;;;6.65;92.36;101186.59;4933890;29;20160;-78
2022/02/24 10:24:53;;;;;;;6.57;3.65;;;;;;;6.53;93.73;101173.88;4948674;29;20494;-83
2022/02/24 10:27:27;;;;;;;6.28;3.38;;;;;;;6.53;90.56;101173.88;4933931;29;20035;-81
2022/02/24 10:30:05;;;;;;;11.35;6.07;;;;;;;6.61;90.24;101197.47;4933836;29;20409;-84
2022/02/24 10:32:34;;;;;;;7.18;3.65;;;;;;;6.57;90.44;101190.38;4949987;29;20106;-83
2022/02/24 10:35:21;;;;;;;5.85;3.95;;;;;;;6.55;91.62;101203.06;4934016;29;20090;-85
2022/02/24 10:38:11;;;;;;;7.03;3.80;;;;;;;6.60;91.54;101187.97;4932674;29;20046;-81
2022/02/24 10:40:39;;;;;;;;;;;;;;;6.64;92.78;101205.34;4886464;29;20049;-82
2022/02/24 10:43:16;;;;;;;9.13;4.00;;;;;;;6.66;92.27;101200.34;4912862;29;20024;-84
2022/02/24 10:45:43;;;;;;;7.25;3.58;;;;;;;6.75;91.75;101199.25;4874223;29;20045;-87
2022/02/24 10:48:09;;;;;;;7.95;4.07;;;;;;;6.75;89.92;101191.56;4874146;29;20040;-86
2022/02/24 10:50:56;;;;;;;8.98;3.60;;;;;;;6.68;90.78;101179.13;4872104;29;20037;-85
2022/02/24 10:53:27;;;;;;;5.93;3.50;;;;;;;6.62;90.55;101192.41;4858084;29;20044;-88
2022/02/24 10:56:01;;;;;;;10.40;4.32;;;;;;;6.45;91.06;101181.06;4858711;29;20550;-87
2022/02/24 10:58:44;;;;;;;14.65;3.97;;;;;;;6.48;89.96;101175.28;4857485;29;20128;-90
2022/02/24 11:01:18;;;;;;;7.05;3.55;;;;;;;6.55;92.28;101197.94;4873628;29;20071;-79
2022/02/24 11:03:51;;;;;;;13.13;5.50;;;;;;;6.56;90.73;101184.31;4873692;29;20756;-83
2022/02/24 11:06:20;;;;;;;15.40;5.72;;;;;;;6.66;91.70;101178.13;4871087;29;20056;-86
2022/02/24 11:08:46;;;;;;;10.50;6.07;;;;;;;6.73;90.50;101166.56;4872428;29;20053;-81
2022/02/24 11:11:21;;;;;;;7.38;4.03;;;;;;;6.87;89.39;101183.72;4876747;29;20761;-80
2022/02/24 11:13:48;;;;;;;7.75;3.45;;;;;;;6.86;87.48;101184.50;4853873;29;20029;-80
2022/02/24 11:16:14;;;;;;;7.60;3.70;;;;;;;6.88;86.63;101194.88;4881252;29;20033;-76
2022/02/24 11:18:40;;;;;;;10.85;5.22;;;;;;;6.80;86.93;101199.53;4946113;29;20426;-82
2022/02/24 11:21:11;;;;;;;10.57;4.80;;;;;;;6.75;87.41;101196.69;4952316;29;20533;-79
2022/02/24 11:23:41;;;;;;;9.65;3.25;;;;;;;6.28;86.02;101131.25;4936168;29;20031;-77